sensor_id;sensor_type;location;lat;lon;timestamp;temperature;humidity
24260;DHT22;12384;48.112;18.418;2023-05-10T00:01:53;10.00;46.40
24260;DHT22;12384;48.112;18.418;2023-05-10T00:04:22;9.90;47.30
24260;DHT22;12384;48.112;18.418;2023-05-10T00:06:54;9.90;47.50
24260;DHT22;12384;48.112;18.418;2023-05-10T00:09:23;9.90;47.70
24260;DHT22;12384;48.112;18.418;2023-05-10T00:11:51;9.90;47.80
24260;DHT22;12384;48.112;18.418;2023-05-10T00:14:20;9.80;47.80
24260;DHT22;12384;48.112;18.418;2023-05-10T00:16:50;9.80;47.90
24260;DHT22;12384;48.112;18.418;2023-05-10T00:19:18;9.80;48.00
24260;DHT22;12384;48.112;18.418;2023-05-10T00:21:47;9.70;48.10
24260;DHT22;12384;48.112;18.418;2023-05-10T00:24:15;9.70;48.10
24260;DHT22;12384;48.112;18.418;2023-05-10T00:26:43;9.70;48.20
24260;DHT22;12384;48.112;18.418;2023-05-10T00:29:13;9.70;48.30
24260;DHT22;12384;48.112;18.418;2023-05-10T00:31:41;9.60;48.40
24260;DHT22;12384;48.112;18.418;2023-05-10T00:34:11;9.60;48.40
24260;DHT22;12384;48.112;18.418;2023-05-10T00:36:40;9.60;48.50
24260;DHT22;12384;48.112;18.418;2023-05-10T00:39:08;9.60;48.60
24260;DHT22;12384;48.112;18.418;2023-05-10T00:41:38;9.50;48.60
24260;DHT22;12384;48.112;18.418;2023-05-10T00:44:07;9.50;48.80
24260;DHT22;12384;48.112;18.418;2023-05-10T00:46:35;9.50;49.00
24260;DHT22;12384;48.112;18.418;2023-05-10T00:49:04;9.50;49.00
24260;DHT22;12384;48.112;18.418;2023-05-10T00:51:34;9.40;49.10
24260;DHT22;12384;48.112;18.418;2023-05-10T00:54:04;9.40;49.10
24260;DHT22;12384;48.112;18.418;2023-05-10T00:56:34;9.30;49.10
24260;DHT22;12384;48.112;18.418;2023-05-10T00:59:02;9.30;49.20
24260;DHT22;12384;48.112;18.418;2023-05-10T01:01:31;9.30;49.40
24260;DHT22;12384;48.112;18.418;2023-05-10T01:04:00;9.30;49.50
24260;DHT22;12384;48.112;18.418;2023-05-10T01:06:30;9.20;49.50
24260;DHT22;12384;48.112;18.418;2023-05-10T01:09:00;9.20;49.60
24260;DHT22;12384;48.112;18.418;2023-05-10T01:11:29;9.30;49.90
24260;DHT22;12384;48.112;18.418;2023-05-10T01:13:57;9.20;49.90
24260;DHT22;12384;48.112;18.418;2023-05-10T01:16:27;9.20;50.00
24260;DHT22;12384;48.112;18.418;2023-05-10T01:18:57;9.20;50.00
24260;DHT22;12384;48.112;18.418;2023-05-10T01:21:32;9.20;50.20
24260;DHT22;12384;48.112;18.418;2023-05-10T01:24:40;9.20;50.30
24260;DHT22;12384;48.112;18.418;2023-05-10T01:30:52;9.10;50.40
24260;DHT22;12384;48.112;18.418;2023-05-10T01:33:30;9.10;50.40
24260;DHT22;12384;48.112;18.418;2023-05-10T01:36:07;9.10;50.50
24260;DHT22;12384;48.112;18.418;2023-05-10T01:38:42;9.10;50.50
24260;DHT22;12384;48.112;18.418;2023-05-10T01:41:19;9.10;50.60
24260;DHT22;12384;48.112;18.418;2023-05-10T01:43:55;9.10;50.80
24260;DHT22;12384;48.112;18.418;2023-05-10T01:46:31;9.10;50.90
24260;DHT22;12384;48.112;18.418;2023-05-10T01:49:06;9.10;51.00
24260;DHT22;12384;48.112;18.418;2023-05-10T01:51:39;9.00;51.00
24260;DHT22;12384;48.112;18.418;2023-05-10T01:54:12;9.10;51.20
24260;DHT22;12384;48.112;18.418;2023-05-10T01:56:41;9.00;51.20
24260;DHT22;12384;48.112;18.418;2023-05-10T01:59:14;9.10;51.40
24260;DHT22;12384;48.112;18.418;2023-05-10T02:01:45;9.10;51.50
24260;DHT22;12384;48.112;18.418;2023-05-10T02:04:18;9.10;51.40
24260;DHT22;12384;48.112;18.418;2023-05-10T02:06:48;9.10;51.40
24260;DHT22;12384;48.112;18.418;2023-05-10T02:09:18;9.10;51.50
24260;DHT22;12384;48.112;18.418;2023-05-10T02:11:49;9.10;51.70
24260;DHT22;12384;48.112;18.418;2023-05-10T02:14:19;9.10;51.40
24260;DHT22;12384;48.112;18.418;2023-05-10T02:16:49;9.00;51.30
24260;DHT22;12384;48.112;18.418;2023-05-10T02:19:20;9.00;51.10
24260;DHT22;12384;48.112;18.418;2023-05-10T02:21:51;9.00;51.40
24260;DHT22;12384;48.112;18.418;2023-05-10T02:24:20;8.90;51.30
24260;DHT22;12384;48.112;18.418;2023-05-10T02:26:51;8.90;51.40
24260;DHT22;12384;48.112;18.418;2023-05-10T02:29:23;8.80;51.40
24260;DHT22;12384;48.112;18.418;2023-05-10T02:31:54;8.80;51.60
24260;DHT22;12384;48.112;18.418;2023-05-10T02:34:26;8.70;51.60
24260;DHT22;12384;48.112;18.418;2023-05-10T02:36:55;8.70;51.70
24260;DHT22;12384;48.112;18.418;2023-05-10T02:39:26;8.70;51.90
24260;DHT22;12384;48.112;18.418;2023-05-10T02:41:57;8.70;52.70
24260;DHT22;12384;48.112;18.418;2023-05-10T02:44:27;8.70;52.30
24260;DHT22;12384;48.112;18.418;2023-05-10T02:46:58;8.70;52.30
24260;DHT22;12384;48.112;18.418;2023-05-10T02:49:30;8.70;52.40
24260;DHT22;12384;48.112;18.418;2023-05-10T02:52:01;8.70;52.50
24260;DHT22;12384;48.112;18.418;2023-05-10T02:54:41;8.70;52.60
24260;DHT22;12384;48.112;18.418;2023-05-10T02:57:16;8.70;52.70
24260;DHT22;12384;48.112;18.418;2023-05-10T02:59:46;8.70;52.70
24260;DHT22;12384;48.112;18.418;2023-05-10T03:02:15;8.70;52.80
24260;DHT22;12384;48.112;18.418;2023-05-10T03:04:45;8.70;52.90
24260;DHT22;12384;48.112;18.418;2023-05-10T03:07:13;8.70;53.00
24260;DHT22;12384;48.112;18.418;2023-05-10T03:09:42;8.70;53.10
24260;DHT22;12384;48.112;18.418;2023-05-10T03:12:18;8.60;53.10
24260;DHT22;12384;48.112;18.418;2023-05-10T03:15:00;8.60;53.20
24260;DHT22;12384;48.112;18.418;2023-05-10T03:17:39;8.60;53.50
24260;DHT22;12384;48.112;18.418;2023-05-10T03:20:15;8.60;53.60
24260;DHT22;12384;48.112;18.418;2023-05-10T03:22:47;8.70;53.80
24260;DHT22;12384;48.112;18.418;2023-05-10T03:25:19;8.70;54.00
24260;DHT22;12384;48.112;18.418;2023-05-10T03:27:52;8.70;54.10
24260;DHT22;12384;48.112;18.418;2023-05-10T03:30:22;8.70;54.10
24260;DHT22;12384;48.112;18.418;2023-05-10T03:32:52;8.70;54.10
24260;DHT22;12384;48.112;18.418;2023-05-10T03:35:23;8.70;54.20
24260;DHT22;12384;48.112;18.418;2023-05-10T03:37:52;8.70;54.30
24260;DHT22;12384;48.112;18.418;2023-05-10T03:40:21;8.70;54.30
24260;DHT22;12384;48.112;18.418;2023-05-10T03:42:50;8.80;54.50
24260;DHT22;12384;48.112;18.418;2023-05-10T03:45:18;8.80;54.50
24260;DHT22;12384;48.112;18.418;2023-05-10T03:47:47;8.80;54.60
24260;DHT22;12384;48.112;18.418;2023-05-10T03:50:15;8.80;54.80
24260;DHT22;12384;48.112;18.418;2023-05-10T03:52:46;8.80;54.90
24260;DHT22;12384;48.112;18.418;2023-05-10T03:55:14;8.80;55.10
24260;DHT22;12384;48.112;18.418;2023-05-10T03:57:43;8.90;55.20
24260;DHT22;12384;48.112;18.418;2023-05-10T04:00:13;8.90;55.30
24260;DHT22;12384;48.112;18.418;2023-05-10T04:02:42;8.90;55.40
24260;DHT22;12384;48.112;18.418;2023-05-10T04:05:18;8.90;55.50
24260;DHT22;12384;48.112;18.418;2023-05-10T04:07:48;9.00;55.60
24260;DHT22;12384;48.112;18.418;2023-05-10T04:10:18;9.00;55.70
24260;DHT22;12384;48.112;18.418;2023-05-10T04:12:46;9.00;55.70
24260;DHT22;12384;48.112;18.418;2023-05-10T04:15:15;9.10;55.80
24260;DHT22;12384;48.112;18.418;2023-05-10T04:17:43;9.10;55.80
24260;DHT22;12384;48.112;18.418;2023-05-10T04:20:12;9.10;55.80
24260;DHT22;12384;48.112;18.418;2023-05-10T04:22:42;9.20;55.80
24260;DHT22;12384;48.112;18.418;2023-05-10T04:25:12;9.20;55.80
24260;DHT22;12384;48.112;18.418;2023-05-10T04:27:40;9.30;55.90
24260;DHT22;12384;48.112;18.418;2023-05-10T04:30:09;9.30;55.80
24260;DHT22;12384;48.112;18.418;2023-05-10T04:32:38;9.30;56.40
24260;DHT22;12384;48.112;18.418;2023-05-10T04:35:07;9.40;55.90
24260;DHT22;12384;48.112;18.418;2023-05-10T04:37:37;9.50;55.90
24260;DHT22;12384;48.112;18.418;2023-05-10T04:40:06;9.50;55.90
24260;DHT22;12384;48.112;18.418;2023-05-10T04:42:36;9.60;55.90
24260;DHT22;12384;48.112;18.418;2023-05-10T04:45:05;9.70;55.90
24260;DHT22;12384;48.112;18.418;2023-05-10T04:47:34;9.80;55.90
24260;DHT22;12384;48.112;18.418;2023-05-10T04:50:05;9.90;55.90
24260;DHT22;12384;48.112;18.418;2023-05-10T04:52:33;10.10;55.20
24260;DHT22;12384;48.112;18.418;2023-05-10T04:55:02;10.30;55.10
24260;DHT22;12384;48.112;18.418;2023-05-10T04:57:30;10.60;54.70
24260;DHT22;12384;48.112;18.418;2023-05-10T05:00:01;10.80;54.10
24260;DHT22;12384;48.112;18.418;2023-05-10T05:02:29;10.90;53.70
24260;DHT22;12384;48.112;18.418;2023-05-10T05:04:58;11.10;53.50
24260;DHT22;12384;48.112;18.418;2023-05-10T05:07:30;11.20;53.30
24260;DHT22;12384;48.112;18.418;2023-05-10T05:10:00;11.30;52.90
24260;DHT22;12384;48.112;18.418;2023-05-10T05:12:30;11.50;52.70
24260;DHT22;12384;48.112;18.418;2023-05-10T05:14:58;11.70;52.90
24260;DHT22;12384;48.112;18.418;2023-05-10T05:17:30;12.00;53.20
24260;DHT22;12384;48.112;18.418;2023-05-10T05:19:58;12.50;52.90
24260;DHT22;12384;48.112;18.418;2023-05-10T05:22:27;13.00;52.10
24260;DHT22;12384;48.112;18.418;2023-05-10T05:24:55;13.50;51.60
24260;DHT22;12384;48.112;18.418;2023-05-10T05:27:25;13.90;50.80
24260;DHT22;12384;48.112;18.418;2023-05-10T05:29:55;14.30;50.10
24260;DHT22;12384;48.112;18.418;2023-05-10T05:32:24;14.80;49.50
24260;DHT22;12384;48.112;18.418;2023-05-10T05:34:54;15.20;49.20
24260;DHT22;12384;48.112;18.418;2023-05-10T05:37:23;15.60;48.40
24260;DHT22;12384;48.112;18.418;2023-05-10T05:39:51;15.90;47.70
24260;DHT22;12384;48.112;18.418;2023-05-10T05:42:21;16.30;47.10
24260;DHT22;12384;48.112;18.418;2023-05-10T05:44:50;16.60;46.40
24260;DHT22;12384;48.112;18.418;2023-05-10T05:47:18;16.90;45.90
24260;DHT22;12384;48.112;18.418;2023-05-10T05:49:47;17.20;45.50
24260;DHT22;12384;48.112;18.418;2023-05-10T05:52:16;17.50;44.90
24260;DHT22;12384;48.112;18.418;2023-05-10T05:54:45;17.80;44.30
24260;DHT22;12384;48.112;18.418;2023-05-10T05:57:13;18.00;43.40
24260;DHT22;12384;48.112;18.418;2023-05-10T05:59:42;18.20;42.90
24260;DHT22;12384;48.112;18.418;2023-05-10T06:02:11;18.40;42.90
24260;DHT22;12384;48.112;18.418;2023-05-10T06:04:39;18.60;42.50
24260;DHT22;12384;48.112;18.418;2023-05-10T06:07:11;18.80;41.60
24260;DHT22;12384;48.112;18.418;2023-05-10T06:09:40;19.00;41.50
24260;DHT22;12384;48.112;18.418;2023-05-10T06:12:09;19.10;41.40
24260;DHT22;12384;48.112;18.418;2023-05-10T06:14:38;19.30;41.10
24260;DHT22;12384;48.112;18.418;2023-05-10T06:17:07;19.40;40.90
24260;DHT22;12384;48.112;18.418;2023-05-10T06:19:35;19.60;40.70
24260;DHT22;12384;48.112;18.418;2023-05-10T06:22:03;19.70;40.50
24260;DHT22;12384;48.112;18.418;2023-05-10T06:24:32;19.90;40.40
24260;DHT22;12384;48.112;18.418;2023-05-10T06:27:02;20.00;40.20
24260;DHT22;12384;48.112;18.418;2023-05-10T06:29:31;20.20;40.20
24260;DHT22;12384;48.112;18.418;2023-05-10T06:31:59;20.30;39.70
24260;DHT22;12384;48.112;18.418;2023-05-10T06:34:28;20.40;39.50
24260;DHT22;12384;48.112;18.418;2023-05-10T06:36:56;20.60;39.50
24260;DHT22;12384;48.112;18.418;2023-05-10T06:39:25;20.70;39.10
24260;DHT22;12384;48.112;18.418;2023-05-10T06:41:53;20.80;39.10
24260;DHT22;12384;48.112;18.418;2023-05-10T06:44:23;20.90;39.30
24260;DHT22;12384;48.112;18.418;2023-05-10T06:46:52;21.10;39.60
24260;DHT22;12384;48.112;18.418;2023-05-10T06:49:22;21.40;39.00
24260;DHT22;12384;48.112;18.418;2023-05-10T06:51:50;21.60;38.60
24260;DHT22;12384;48.112;18.418;2023-05-10T06:54:19;21.70;38.50
24260;DHT22;12384;48.112;18.418;2023-05-10T06:56:48;22.00;38.60
24260;DHT22;12384;48.112;18.418;2023-05-10T06:59:16;22.20;37.80
24260;DHT22;12384;48.112;18.418;2023-05-10T07:01:47;22.20;36.80
24260;DHT22;12384;48.112;18.418;2023-05-10T07:04:16;22.30;37.20
24260;DHT22;12384;48.112;18.418;2023-05-10T07:06:45;22.20;36.50
24260;DHT22;12384;48.112;18.418;2023-05-10T07:09:13;22.00;36.40
24260;DHT22;12384;48.112;18.418;2023-05-10T07:11:42;21.80;36.60
24260;DHT22;12384;48.112;18.418;2023-05-10T07:14:10;21.60;37.00
24260;DHT22;12384;48.112;18.418;2023-05-10T07:16:39;21.60;37.60
24260;DHT22;12384;48.112;18.418;2023-05-10T07:19:09;21.80;37.70
24260;DHT22;12384;48.112;18.418;2023-05-10T07:21:37;22.00;37.30
24260;DHT22;12384;48.112;18.418;2023-05-10T07:24:07;22.20;37.10
24260;DHT22;12384;48.112;18.418;2023-05-10T07:26:35;22.40;37.40
24260;DHT22;12384;48.112;18.418;2023-05-10T07:29:04;22.60;36.70
24260;DHT22;12384;48.112;18.418;2023-05-10T07:31:32;22.80;36.40
24260;DHT22;12384;48.112;18.418;2023-05-10T07:34:01;22.80;36.10
24260;DHT22;12384;48.112;18.418;2023-05-10T07:36:31;23.00;36.50
24260;DHT22;12384;48.112;18.418;2023-05-10T07:38:59;23.30;36.40
24260;DHT22;12384;48.112;18.418;2023-05-10T07:41:28;23.30;34.90
24260;DHT22;12384;48.112;18.418;2023-05-10T07:43:57;23.30;34.70
24260;DHT22;12384;48.112;18.418;2023-05-10T07:46:25;23.00;34.50
24260;DHT22;12384;48.112;18.418;2023-05-10T07:48:54;22.80;35.00
24260;DHT22;12384;48.112;18.418;2023-05-10T07:51:23;22.50;35.00
24260;DHT22;12384;48.112;18.418;2023-05-10T07:53:52;22.10;35.30
24260;DHT22;12384;48.112;18.418;2023-05-10T07:56:23;21.80;35.50
24260;DHT22;12384;48.112;18.418;2023-05-10T07:58:54;21.30;35.70
24260;DHT22;12384;48.112;18.418;2023-05-10T08:01:23;20.90;36.40
24260;DHT22;12384;48.112;18.418;2023-05-10T08:03:52;20.50;36.80
24260;DHT22;12384;48.112;18.418;2023-05-10T08:06:20;20.20;37.30
24260;DHT22;12384;48.112;18.418;2023-05-10T08:08:49;19.80;37.80
24260;DHT22;12384;48.112;18.418;2023-05-10T08:11:20;19.50;38.30
24260;DHT22;12384;48.112;18.418;2023-05-10T08:13:50;19.40;39.00
24260;DHT22;12384;48.112;18.418;2023-05-10T08:16:19;19.30;40.00
24260;DHT22;12384;48.112;18.418;2023-05-10T08:18:47;19.30;40.10
24260;DHT22;12384;48.112;18.418;2023-05-10T08:21:17;19.40;40.10
24260;DHT22;12384;48.112;18.418;2023-05-10T08:23:46;19.50;39.90
24260;DHT22;12384;48.112;18.418;2023-05-10T08:26:14;19.60;39.40
24260;DHT22;12384;48.112;18.418;2023-05-10T08:28:44;19.60;39.00
24260;DHT22;12384;48.112;18.418;2023-05-10T08:31:12;19.60;39.50
24260;DHT22;12384;48.112;18.418;2023-05-10T08:33:41;19.60;39.70
24260;DHT22;12384;48.112;18.418;2023-05-10T08:36:11;19.60;39.70
24260;DHT22;12384;48.112;18.418;2023-05-10T08:38:41;19.50;39.40
24260;DHT22;12384;48.112;18.418;2023-05-10T08:41:10;19.50;40.00
24260;DHT22;12384;48.112;18.418;2023-05-10T08:43:39;19.60;41.00
24260;DHT22;12384;48.112;18.418;2023-05-10T08:46:10;19.70;40.10
24260;DHT22;12384;48.112;18.418;2023-05-10T08:48:39;19.70;39.50
24260;DHT22;12384;48.112;18.418;2023-05-10T08:51:09;19.90;40.10
24260;DHT22;12384;48.112;18.418;2023-05-10T08:53:37;20.20;40.20
24260;DHT22;12384;48.112;18.418;2023-05-10T08:56:07;20.50;39.50
24260;DHT22;12384;48.112;18.418;2023-05-10T08:58:37;20.60;38.50
24260;DHT22;12384;48.112;18.418;2023-05-10T09:01:05;20.70;38.60
24260;DHT22;12384;48.112;18.418;2023-05-10T09:03:38;20.80;38.70
24260;DHT22;12384;48.112;18.418;2023-05-10T09:06:07;20.80;38.30
24260;DHT22;12384;48.112;18.418;2023-05-10T09:08:36;20.80;37.70
24260;DHT22;12384;48.112;18.418;2023-05-10T09:11:06;20.60;37.50
24260;DHT22;12384;48.112;18.418;2023-05-10T09:13:35;20.50;37.60
24260;DHT22;12384;48.112;18.418;2023-05-10T09:16:04;20.30;38.30
24260;DHT22;12384;48.112;18.418;2023-05-10T09:18:49;20.20;38.60
24260;DHT22;12384;48.112;18.418;2023-05-10T09:21:19;20.20;39.20
24260;DHT22;12384;48.112;18.418;2023-05-10T09:23:48;20.20;39.60
24260;DHT22;12384;48.112;18.418;2023-05-10T09:26:22;20.40;39.30
24260;DHT22;12384;48.112;18.418;2023-05-10T09:28:51;20.40;38.90
24260;DHT22;12384;48.112;18.418;2023-05-10T09:31:20;20.20;38.90
24260;DHT22;12384;48.112;18.418;2023-05-10T09:33:51;20.10;39.50
24260;DHT22;12384;48.112;18.418;2023-05-10T09:36:20;20.00;39.70
24260;DHT22;12384;48.112;18.418;2023-05-10T09:38:49;19.90;39.70
24260;DHT22;12384;48.112;18.418;2023-05-10T09:41:19;19.80;39.80
24260;DHT22;12384;48.112;18.418;2023-05-10T09:43:49;19.70;40.10
24260;DHT22;12384;48.112;18.418;2023-05-10T09:46:18;19.70;41.10
24260;DHT22;12384;48.112;18.418;2023-05-10T09:48:47;19.80;41.00
24260;DHT22;12384;48.112;18.418;2023-05-10T09:51:20;19.90;41.40
24260;DHT22;12384;48.112;18.418;2023-05-10T09:54:09;20.00;40.20
24260;DHT22;12384;48.112;18.418;2023-05-10T09:56:38;20.00;39.90
24260;DHT22;12384;48.112;18.418;2023-05-10T09:59:10;19.90;40.30
24260;DHT22;12384;48.112;18.418;2023-05-10T10:01:41;19.90;40.60
24260;DHT22;12384;48.112;18.418;2023-05-10T10:04:10;20.00;40.70
24260;DHT22;12384;48.112;18.418;2023-05-10T10:06:40;20.10;41.10
24260;DHT22;12384;48.112;18.418;2023-05-10T10:09:09;20.30;41.00
24260;DHT22;12384;48.112;18.418;2023-05-10T10:11:38;20.40;40.10
24260;DHT22;12384;48.112;18.418;2023-05-10T10:14:08;20.50;39.80
24260;DHT22;12384;48.112;18.418;2023-05-10T10:16:37;20.40;39.60
24260;DHT22;12384;48.112;18.418;2023-05-10T10:19:22;20.50;40.20
24260;DHT22;12384;48.112;18.418;2023-05-10T10:21:51;20.70;40.40
24260;DHT22;12384;48.112;18.418;2023-05-10T10:24:20;20.70;39.70
24260;DHT22;12384;48.112;18.418;2023-05-10T10:26:49;21.00;40.60
24260;DHT22;12384;48.112;18.418;2023-05-10T10:29:25;21.40;40.80
24260;DHT22;12384;48.112;18.418;2023-05-10T10:32:01;21.80;39.30
24260;DHT22;12384;48.112;18.418;2023-05-10T10:34:31;22.20;39.20
24260;DHT22;12384;48.112;18.418;2023-05-10T10:37:05;22.60;38.60
24260;DHT22;12384;48.112;18.418;2023-05-10T10:39:34;23.00;36.80
24260;DHT22;12384;48.112;18.418;2023-05-10T10:42:04;23.20;36.30
24260;DHT22;12384;48.112;18.418;2023-05-10T10:44:35;23.30;34.90
24260;DHT22;12384;48.112;18.418;2023-05-10T10:50:06;23.70;34.40
24260;DHT22;12384;48.112;18.418;2023-05-10T10:52:37;23.80;34.10
24260;DHT22;12384;48.112;18.418;2023-05-10T10:55:07;23.70;34.40
24260;DHT22;12384;48.112;18.418;2023-05-10T10:57:50;23.60;34.50
24260;DHT22;12384;48.112;18.418;2023-05-10T11:00:24;23.70;33.50
24260;DHT22;12384;48.112;18.418;2023-05-10T11:02:56;23.80;34.10
24260;DHT22;12384;48.112;18.418;2023-05-10T11:05:37;23.80;33.10
24260;DHT22;12384;48.112;18.418;2023-05-10T11:08:15;23.90;33.00
24260;DHT22;12384;48.112;18.418;2023-05-10T11:10:53;23.70;32.20
24260;DHT22;12384;48.112;18.418;2023-05-10T11:13:29;23.40;32.30
24260;DHT22;12384;48.112;18.418;2023-05-10T11:15:58;23.10;32.70
24260;DHT22;12384;48.112;18.418;2023-05-10T11:18:29;23.00;33.00
24260;DHT22;12384;48.112;18.418;2023-05-10T11:20:59;23.00;33.00
24260;DHT22;12384;48.112;18.418;2023-05-10T11:23:32;23.10;33.30
24260;DHT22;12384;48.112;18.418;2023-05-10T11:26:01;23.30;33.30
24260;DHT22;12384;48.112;18.418;2023-05-10T11:28:29;23.50;32.90
24260;DHT22;12384;48.112;18.418;2023-05-10T11:30:58;23.80;33.20
24260;DHT22;12384;48.112;18.418;2023-05-10T11:33:27;24.10;33.20
24260;DHT22;12384;48.112;18.418;2023-05-10T11:35:56;24.40;33.30
24260;DHT22;12384;48.112;18.418;2023-05-10T11:38:24;24.50;33.20
24260;DHT22;12384;48.112;18.418;2023-05-10T11:40:54;24.70;32.10
24260;DHT22;12384;48.112;18.418;2023-05-10T11:43:24;24.90;30.80
24260;DHT22;12384;48.112;18.418;2023-05-10T11:45:57;25.10;30.20
24260;DHT22;12384;48.112;18.418;2023-05-10T11:48:26;25.10;30.00
24260;DHT22;12384;48.112;18.418;2023-05-10T11:50:55;25.00;29.70
24260;DHT22;12384;48.112;18.418;2023-05-10T11:53:26;25.20;30.60
24260;DHT22;12384;48.112;18.418;2023-05-10T11:56:02;25.40;30.50
24260;DHT22;12384;48.112;18.418;2023-05-10T11:58:31;25.60;30.00
24260;DHT22;12384;48.112;18.418;2023-05-10T12:01:00;25.80;29.90
24260;DHT22;12384;48.112;18.418;2023-05-10T12:03:30;25.90;29.70
24260;DHT22;12384;48.112;18.418;2023-05-10T12:06:00;26.00;29.10
24260;DHT22;12384;48.112;18.418;2023-05-10T12:08:30;25.90;28.60
24260;DHT22;12384;48.112;18.418;2023-05-10T12:11:07;25.40;28.50
24260;DHT22;12384;48.112;18.418;2023-05-10T12:13:38;25.10;29.20
24260;DHT22;12384;48.112;18.418;2023-05-10T12:16:15;25.00;30.00
24260;DHT22;12384;48.112;18.418;2023-05-10T12:18:44;24.90;29.60
24260;DHT22;12384;48.112;18.418;2023-05-10T12:21:13;24.70;29.20
24260;DHT22;12384;48.112;18.418;2023-05-10T12:23:41;24.60;29.80
24260;DHT22;12384;48.112;18.418;2023-05-10T12:26:11;24.70;30.00
24260;DHT22;12384;48.112;18.418;2023-05-10T12:28:40;24.90;30.00
24260;DHT22;12384;48.112;18.418;2023-05-10T12:31:08;25.10;29.80
24260;DHT22;12384;48.112;18.418;2023-05-10T12:33:38;25.20;29.30
24260;DHT22;12384;48.112;18.418;2023-05-10T12:36:09;25.20;29.30
24260;DHT22;12384;48.112;18.418;2023-05-10T12:38:39;25.10;29.40
24260;DHT22;12384;48.112;18.418;2023-05-10T12:41:13;25.20;29.30
24260;DHT22;12384;48.112;18.418;2023-05-10T12:43:41;25.30;29.40
24260;DHT22;12384;48.112;18.418;2023-05-10T12:46:11;25.40;29.60
24260;DHT22;12384;48.112;18.418;2023-05-10T12:48:41;25.60;28.90
24260;DHT22;12384;48.112;18.418;2023-05-10T12:51:10;25.80;28.90
24260;DHT22;12384;48.112;18.418;2023-05-10T12:53:40;25.90;28.40
24260;DHT22;12384;48.112;18.418;2023-05-10T12:56:13;26.10;28.20
24260;DHT22;12384;48.112;18.418;2023-05-10T12:58:41;26.30;27.50
24260;DHT22;12384;48.112;18.418;2023-05-10T13:01:15;26.30;27.60
24260;DHT22;12384;48.112;18.418;2023-05-10T13:03:43;26.10;27.20
24260;DHT22;12384;48.112;18.418;2023-05-10T13:06:13;25.90;27.60
24260;DHT22;12384;48.112;18.418;2023-05-10T13:08:41;25.60;27.10
24260;DHT22;12384;48.112;18.418;2023-05-10T13:11:10;25.40;27.80
24260;DHT22;12384;48.112;18.418;2023-05-10T13:13:40;25.30;28.00
24260;DHT22;12384;48.112;18.418;2023-05-10T13:16:08;25.20;28.20
24260;DHT22;12384;48.112;18.418;2023-05-10T13:18:36;25.10;28.50
24260;DHT22;12384;48.112;18.418;2023-05-10T13:21:05;25.20;28.90
24260;DHT22;12384;48.112;18.418;2023-05-10T13:23:34;25.10;28.30
24260;DHT22;12384;48.112;18.418;2023-05-10T13:26:02;25.10;28.30
24260;DHT22;12384;48.112;18.418;2023-05-10T13:28:31;25.10;28.50
24260;DHT22;12384;48.112;18.418;2023-05-10T13:31:01;25.20;28.70
24260;DHT22;12384;48.112;18.418;2023-05-10T13:33:29;25.40;28.40
24260;DHT22;12384;48.112;18.418;2023-05-10T13:35:57;25.60;28.50
24260;DHT22;12384;48.112;18.418;2023-05-10T13:38:26;25.70;27.90
24260;DHT22;12384;48.112;18.418;2023-05-10T13:40:54;25.60;27.60
24260;DHT22;12384;48.112;18.418;2023-05-10T13:43:23;25.50;28.00
24260;DHT22;12384;48.112;18.418;2023-05-10T13:45:52;25.40;28.60
24260;DHT22;12384;48.112;18.418;2023-05-10T13:48:22;25.40;29.10
24260;DHT22;12384;48.112;18.418;2023-05-10T13:50:50;25.30;29.10
24260;DHT22;12384;48.112;18.418;2023-05-10T13:53:18;25.20;28.50
24260;DHT22;12384;48.112;18.418;2023-05-10T13:55:48;24.90;28.40
24260;DHT22;12384;48.112;18.418;2023-05-10T13:58:16;24.60;28.60
24260;DHT22;12384;48.112;18.418;2023-05-10T14:00:44;24.20;28.60
24260;DHT22;12384;48.112;18.418;2023-05-10T14:03:13;23.90;28.90
24260;DHT22;12384;48.112;18.418;2023-05-10T14:05:43;23.50;29.00
24260;DHT22;12384;48.112;18.418;2023-05-10T14:08:12;23.30;29.30
24260;DHT22;12384;48.112;18.418;2023-05-10T14:10:41;23.20;29.80
24260;DHT22;12384;48.112;18.418;2023-05-10T14:13:09;23.10;30.00
24260;DHT22;12384;48.112;18.418;2023-05-10T14:15:39;23.00;30.20
24260;DHT22;12384;48.112;18.418;2023-05-10T14:18:07;23.00;30.40
24260;DHT22;12384;48.112;18.418;2023-05-10T14:20:36;22.90;30.40
24260;DHT22;12384;48.112;18.418;2023-05-10T14:23:05;22.80;29.80
24260;DHT22;12384;48.112;18.418;2023-05-10T14:25:38;22.70;29.60
24260;DHT22;12384;48.112;18.418;2023-05-10T14:28:06;22.60;29.90
24260;DHT22;12384;48.112;18.418;2023-05-10T14:30:34;22.50;29.90
24260;DHT22;12384;48.112;18.418;2023-05-10T14:33:03;22.40;30.00
24260;DHT22;12384;48.112;18.418;2023-05-10T14:35:32;22.30;30.40
24260;DHT22;12384;48.112;18.418;2023-05-10T14:38:01;22.20;30.80
24260;DHT22;12384;48.112;18.418;2023-05-10T14:40:31;22.10;30.90
24260;DHT22;12384;48.112;18.418;2023-05-10T14:43:00;22.00;31.00
24260;DHT22;12384;48.112;18.418;2023-05-10T14:45:28;22.00;30.80
24260;DHT22;12384;48.112;18.418;2023-05-10T14:47:57;21.90;31.10
24260;DHT22;12384;48.112;18.418;2023-05-10T14:50:26;21.80;31.40
24260;DHT22;12384;48.112;18.418;2023-05-10T14:52:57;21.80;31.80
24260;DHT22;12384;48.112;18.418;2023-05-10T14:55:26;21.80;31.60
24260;DHT22;12384;48.112;18.418;2023-05-10T14:57:56;21.70;31.40
24260;DHT22;12384;48.112;18.418;2023-05-10T15:00:26;21.60;31.70
24260;DHT22;12384;48.112;18.418;2023-05-10T15:02:55;21.50;32.10
24260;DHT22;12384;48.112;18.418;2023-05-10T15:05:24;21.40;31.90
24260;DHT22;12384;48.112;18.418;2023-05-10T15:07:53;21.30;31.90
24260;DHT22;12384;48.112;18.418;2023-05-10T15:10:22;21.20;31.90
24260;DHT22;12384;48.112;18.418;2023-05-10T15:12:50;21.20;32.20
24260;DHT22;12384;48.112;18.418;2023-05-10T15:15:20;21.10;32.20
24260;DHT22;12384;48.112;18.418;2023-05-10T15:17:48;21.00;32.20
24260;DHT22;12384;48.112;18.418;2023-05-10T15:20:17;20.90;31.80
24260;DHT22;12384;48.112;18.418;2023-05-10T15:22:45;20.90;31.80
24260;DHT22;12384;48.112;18.418;2023-05-10T15:25:13;20.80;31.50
24260;DHT22;12384;48.112;18.418;2023-05-10T15:27:43;20.80;31.90
24260;DHT22;12384;48.112;18.418;2023-05-10T15:30:12;20.70;31.70
24260;DHT22;12384;48.112;18.418;2023-05-10T15:32:42;20.60;31.90
24260;DHT22;12384;48.112;18.418;2023-05-10T15:35:10;20.50;31.40
24260;DHT22;12384;48.112;18.418;2023-05-10T15:37:39;20.50;31.00
24260;DHT22;12384;48.112;18.418;2023-05-10T15:40:08;20.40;31.50
24260;DHT22;12384;48.112;18.418;2023-05-10T15:42:36;20.30;32.20
24260;DHT22;12384;48.112;18.418;2023-05-10T15:45:05;20.30;32.50